Time;durP1;ratioP1;P1;durP2;ratioP2;P2;SDS_P1;SDS_P2;PMS_P1;PMS_P2;Temp;Humidity;BMP_temperature;BMP_pressure;BME280_temperature;BME280_humidity;BME280_pressure;Samples;Min_cycle;Max_cycle;Signal;HPM_P1;HPM_P2
2023/07/13 00:01:00;;;;;;;9.20;3.10;;;;;;;14.70;96.57;99383.44;109100;1258;69342;-67
2023/07/13 00:03:48;;;;;;;7.90;3.00;;;;;;;14.67;96.85;99384.08;109031;1258;71047;-66
2023/07/13 00:06:36;;;;;;;8.80;3.30;;;;;;;14.64;97.15;99387.92;108937;1259;57951;-66
2023/07/13 00:09:23;;;;;;;8.30;3.00;;;;;;;14.60;97.22;99390.45;108921;1258;59011;-66
2023/07/13 00:12:36;;;;;;;8.10;3.50;;;;;;;14.57;97.68;99393.21;108894;1258;71891;-65
2023/07/13 00:15:26;;;;;;;7.10;2.70;;;;;;;14.57;97.85;99396.53;109011;1259;65395;-67
2023/07/13 00:18:14;;;;;;;10.40;3.10;;;;;;;14.56;98.32;99399.42;108920;1259;71557;-68
2023/07/13 00:21:06;;;;;;;9.60;3.20;;;;;;;14.55;98.72;99400.03;108968;1258;58400;-67
2023/07/13 00:23:54;;;;;;;9.00;3.00;;;;;;;14.56;99.55;99402.64;108919;1258;61128;-68
2023/07/13 00:26:45;;;;;;;9.00;3.00;;;;;;;14.57;99.62;99396.65;106471;1259;3315785;-66
2023/07/13 00:29:33;;;;;;;8.80;3.30;;;;;;;14.57;99.74;99390.06;108896;1259;66905;-67
2023/07/13 00:32:21;;;;;;;9.00;3.20;;;;;;;14.57;99.84;99380.23;108980;1258;72466;-66
2023/07/13 00:35:10;;;;;;;8.50;3.60;;;;;;;14.57;99.14;99372.27;108958;1259;59241;-66
2023/07/13 00:37:57;;;;;;;8.00;3.40;;;;;;;14.55;99.06;99361.91;108971;1259;58861;-65
2023/07/13 00:40:45;;;;;;;9.40;3.10;;;;;;;14.50;99.11;99360.80;108935;1258;73794;-67
2023/07/13 00:43:33;;;;;;;7.60;2.90;;;;;;;14.47;99.06;99365.08;108940;1259;68184;-68
2023/07/13 00:46:30;;;;;;;10.70;3.30;;;;;;;14.43;99.36;99376.70;109059;1258;72396;-67
2023/07/13 00:49:22;;;;;;;8.90;3.70;;;;;;;14.40;99.50;99383.43;109085;1258;58177;-67
2023/07/13 00:52:10;;;;;;;10.90;3.40;;;;;;;14.39;99.72;99378.52;108982;1258;61275;-65
2023/07/13 00:54:58;;;;;;;9.70;3.30;;;;;;;14.38;99.52;99380.13;108921;1258;73130;-65
2023/07/13 00:57:47;;;;;;;9.30;3.50;;;;;;;14.37;99.96;99379.98;109026;1259;67639;-65
2023/07/13 01:00:37;;;;;;;8.90;3.20;;;;;;;14.37;100.00;99383.90;108947;1259;72420;-63
2023/07/13 01:03:27;;;;;;;10.50;4.00;;;;;;;14.37;100.00;99393.77;108971;1258;58800;-63
2023/07/13 01:06:17;;;;;;;10.50;4.20;;;;;;;14.37;100.00;99402.52;109000;1259;61071;-65
2023/07/13 01:09:08;;;;;;;8.80;3.00;;;;;;;14.36;100.00;99404.23;108961;1258;73089;-65
2023/07/13 01:11:56;;;;;;;9.90;3.40;;;;;;;14.37;100.00;99406.65;108969;1259;66682;-66
2023/07/13 01:14:44;;;;;;;11.10;3.50;;;;;;;14.37;100.00;99404.51;108963;1259;73790;-69
2023/07/13 01:17:34;;;;;;;8.40;3.30;;;;;;;14.36;100.00;99407.75;109088;1258;59889;-68
2023/07/13 01:20:21;;;;;;;9.80;3.60;;;;;;;14.36;100.00;99409.04;108998;1259;58534;-68
2023/07/13 01:23:33;;;;;;;9.20;3.10;;;;;;;14.36;100.00;99406.48;108958;1259;74354;-71
2023/07/13 01:26:24;;;;;;;9.40;3.40;;;;;;;14.37;100.00;99408.68;108988;1259;68711;-70
2023/07/13 01:29:12;;;;;;;10.50;3.10;;;;;;;14.40;100.00;99408.27;109090;1258;71186;-68
2023/07/13 01:32:01;;;;;;;11.50;3.60;;;;;;;14.40;100.00;99403.58;109064;1258;59353;-67
2023/07/13 01:34:54;;;;;;;9.70;3.20;;;;;;;14.42;100.00;99404.80;109000;1258;60221;-68
2023/07/13 01:37:44;;;;;;;11.80;3.20;;;;;;;14.44;100.00;99407.98;108952;1258;72957;-70
2023/07/13 01:40:32;;;;;;;10.20;3.20;;;;;;;14.45;100.00;99407.21;108959;1259;68920;-66
2023/07/13 01:43:21;;;;;;;9.40;3.50;;;;;;;14.46;100.00;99413.71;108969;1259;72677;-67
2023/07/13 01:46:09;;;;;;;11.80;3.40;;;;;;;14.47;100.00;99416.77;108965;1258;58408;-67
2023/07/13 01:49:10;;;;;;;9.50;3.50;;;;;;;14.51;100.00;99414.30;109055;1258;60291;-66
2023/07/13 01:51:59;;;;;;;10.70;3.20;;;;;;;14.54;100.00;99421.41;108906;1258;73234;-68
2023/07/13 01:54:47;;;;;;;9.90;3.60;;;;;;;14.56;100.00;99420.12;109041;1258;65783;-67
2023/07/13 01:57:37;;;;;;;9.10;3.40;;;;;;;14.62;100.00;99425.78;108920;1259;72747;-69
2023/07/13 02:00:25;;;;;;;8.90;3.50;;;;;;;14.68;100.00;99428.77;109003;1259;59457;-67
2023/07/13 02:03:17;;;;;;;12.90;3.90;;;;;;;14.71;100.00;99433.06;108894;1258;60669;-68
2023/07/13 02:06:06;;;;;;;10.90;3.50;;;;;;;14.76;100.00;99434.71;108968;1259;73944;-70
2023/07/13 02:08:55;;;;;;;10.70;3.90;;;;;;;14.80;100.00;99433.23;108872;1258;67610;-67
2023/07/13 02:11:43;;;;;;;11.50;3.80;;;;;;;14.83;100.00;99434.68;108886;1258;73722;-67
2023/07/13 02:14:31;;;;;;;11.70;3.70;;;;;;;14.85;100.00;99437.33;108984;1258;59661;-66
2023/07/13 02:17:18;;;;;;;10.90;3.90;;;;;;;14.86;100.00;99441.66;108985;1260;61066;-65
2023/07/13 02:20:07;;;;;;;11.40;3.10;;;;;;;14.88;100.00;99443.83;109095;1258;71837;-65
2023/07/13 02:22:55;;;;;;;11.80;3.60;;;;;;;14.87;100.00;99449.80;109099;1258;68926;-66
2023/07/13 02:25:45;;;;;;;14.60;3.60;;;;;;;14.88;100.00;99451.27;108859;1258;72687;-65
2023/07/13 02:28:36;;;;;;;9.90;4.10;;;;;;;14.88;100.00;99452.15;109023;1258;60341;-66
2023/07/13 02:31:23;;;;;;;11.40;4.20;;;;;;;14.87;100.00;99454.77;109096;1258;58782;-66
2023/07/13 02:34:14;;;;;;;12.50;5.20;;;;;;;14.85;100.00;99460.01;109042;1258;71837;-65
2023/07/13 02:37:02;;;;;;;11.90;5.40;;;;;;;14.81;100.00;99454.73;108924;1258;68027;-65
2023/07/13 02:39:50;;;;;;;13.40;5.10;;;;;;;14.81;100.00;99453.27;109050;1258;72779;-67
2023/07/13 02:42:39;;;;;;;13.70;4.70;;;;;;;14.81;100.00;99450.07;108960;1259;58165;-67
2023/07/13 02:45:26;;;;;;;10.30;4.20;;;;;;;14.81;100.00;99455.09;108951;1258;57768;-65
2023/07/13 02:48:14;;;;;;;11.80;4.40;;;;;;;14.81;100.00;99457.21;109022;1259;74218;-68
2023/07/13 02:51:03;;;;;;;11.50;3.80;;;;;;;14.81;100.00;99457.68;109029;1259;68671;-67
2023/07/13 02:53:54;;;;;;;11.00;3.90;;;;;;;14.81;100.00;99455.43;108977;1258;72402;-70
2023/07/13 02:56:45;;;;;;;11.70;4.40;;;;;;;14.82;100.00;99453.33;108923;1259;59546;-69
2023/07/13 02:59:33;;;;;;;9.50;3.50;;;;;;;14.85;100.00;99458.29;109005;1258;59070;-70
2023/07/13 03:02:21;;;;;;;12.00;3.70;;;;;;;14.84;100.00;99456.02;109031;1258;72190;-67
2023/07/13 03:05:12;;;;;;;12.30;3.80;;;;;;;14.83;100.00;99448.94;108915;1259;68141;-66
2023/07/13 03:08:03;;;;;;;11.70;4.10;;;;;;;14.86;100.00;99446.17;108929;1258;73548;-65
2023/07/13 03:11:05;;;;;;;11.00;3.20;;;;;;;14.88;100.00;99450.61;108919;1258;59766;-65
2023/07/13 03:13:55;;;;;;;10.50;3.20;;;;;;;14.88;100.00;99451.50;108984;1258;60167;-68
2023/07/13 03:16:43;;;;;;;10.40;3.10;;;;;;;14.90;100.00;99455.33;108969;1259;73061;-69
2023/07/13 03:19:32;;;;;;;9.20;2.90;;;;;;;14.93;100.00;99453.77;108896;1259;67942;-67
2023/07/13 03:22:25;;;;;;;10.00;3.60;;;;;;;14.97;100.00;99451.37;108904;1258;72742;-66
2023/07/13 03:25:14;;;;;;;10.30;3.40;;;;;;;15.02;100.00;99454.16;108909;1258;58035;-68
2023/07/13 03:28:04;;;;;;;10.10;3.40;;;;;;;15.06;100.00;99457.58;108911;1258;61051;-66
2023/07/13 03:31:13;;;;;;;11.20;3.90;;;;;;;15.10;100.00;99455.02;108950;1259;71855;-67
2023/07/13 03:34:03;;;;;;;10.60;3.20;;;;;;;15.16;100.00;99453.02;108926;1258;68912;-67
2023/07/13 03:36:54;;;;;;;9.70;3.80;;;;;;;15.20;100.00;99449.83;108975;1259;71149;-69
2023/07/13 03:39:43;;;;;;;12.20;3.50;;;;;;;15.27;100.00;99445.73;108867;1258;57955;-64
2023/07/13 03:42:32;;;;;;;8.70;3.20;;;;;;;15.32;100.00;99442.14;108987;1259;60229;-68
2023/07/13 03:45:20;;;;;;;10.20;3.00;;;;;;;15.38;100.00;99443.65;108909;1257;73848;-72
2023/07/13 03:48:08;;;;;;;9.20;3.00;;;;;;;15.42;100.00;99444.99;109044;1257;68171;-70
2023/07/13 03:50:56;;;;;;;9.90;3.20;;;;;;;15.46;100.00;99446.58;109063;1257;72459;-68
2023/07/13 03:53:47;;;;;;;11.00;3.00;;;;;;;15.50;100.00;99449.36;109031;1257;58269;-70
2023/07/13 03:56:35;;;;;;;11.30;3.30;;;;;;;15.56;100.00;99451.79;108970;1257;60118;-69
2023/07/13 03:59:24;;;;;;;13.60;3.40;;;;;;;15.62;100.00;99451.29;109091;1257;73388;-71
2023/07/13 04:02:17;;;;;;;12.20;3.20;;;;;;;15.70;100.00;99450.25;109008;1257;67630;-69
2023/07/13 04:05:06;;;;;;;8.30;3.10;;;;;;;15.81;100.00;99451.95;108973;1257;72869;-67
2023/07/13 04:07:55;;;;;;;12.30;3.10;;;;;;;15.90;100.00;99458.80;108963;1257;58204;-70
2023/07/13 04:10:43;;;;;;;9.60;3.20;;;;;;;16.00;100.00;99457.74;109061;1257;60380;-66
2023/07/13 04:13:33;;;;;;;13.00;2.70;;;;;;;16.08;100.00;99459.20;109076;1257;73866;-69
2023/07/13 04:16:21;;;;;;;9.40;3.10;;;;;;;16.17;100.00;99463.06;108892;1257;66445;-69
2023/07/13 04:19:10;;;;;;;11.20;2.80;;;;;;;16.26;100.00;99469.55;108945;1257;71500;-70
2023/07/13 04:21:58;;;;;;;12.40;3.60;;;;;;;16.36;100.00;99476.48;108985;1259;59244;-68
2023/07/13 04:24:45;;;;;;;9.00;3.00;;;;;;;16.44;100.00;99471.29;109101;1257;60441;-67
2023/07/13 04:27:36;;;;;;;9.60;2.90;;;;;;;16.54;100.00;99473.98;108832;1261;73174;-67
2023/07/13 04:30:24;;;;;;;9.60;2.50;;;;;;;16.67;100.00;99477.48;108898;1261;66813;-70
2023/07/13 04:33:12;;;;;;;12.70;3.00;;;;;;;16.79;100.00;99486.02;108839;1262;71486;-68
2023/07/13 04:36:01;;;;;;;9.70;2.60;;;;;;;16.91;99.73;99488.31;108759;1262;59591;-68
2023/07/13 04:38:49;;;;;;;8.60;2.80;;;;;;;17.05;99.05;99494.46;108932;1261;58982;-68
2023/07/13 04:41:40;;;;;;;11.50;2.90;;;;;;;17.21;98.34;99497.02;108913;1262;73009;-67
2023/07/13 04:44:28;;;;;;;11.20;2.70;;;;;;;17.43;97.16;99499.74;108807;1261;65674;-72
2023/07/13 04:47:18;;;;;;;10.40;2.80;;;;;;;17.70;95.63;99486.41;108888;1262;72805;-68
2023/07/13 04:50:08;;;;;;;11.10;2.90;;;;;;;18.01;93.91;99473.89;108817;1262;57657;-71
2023/07/13 04:53:01;;;;;;;10.30;2.40;;;;;;;18.49;92.27;99470.45;108836;1262;60029;-68
2023/07/13 04:55:54;;;;;;;10.00;2.90;;;;;;;19.06;89.57;99469.13;108749;1262;73064;-69
2023/07/13 04:58:43;;;;;;;9.10;2.40;;;;;;;19.69;85.53;99473.80;108941;1257;68727;-71
2023/07/13 05:01:32;;;;;;;7.10;2.20;;;;;;;20.25;82.79;99467.43;108985;1257;72830;-72
2023/07/13 05:04:19;;;;;;;10.60;2.40;;;;;;;20.84;80.15;99469.42;108923;1257;57325;-68
2023/07/13 05:07:08;;;;;;;9.40;2.10;;;;;;;21.39;76.55;99470.05;109081;1257;60377;-68
2023/07/13 05:10:03;;;;;;;8.00;2.40;;;;;;;21.91;73.02;99468.86;109054;1257;73394;-73
2023/07/13 05:12:51;;;;;;;9.70;2.00;;;;;;;22.43;71.07;99468.96;108927;1259;66631;-69
2023/07/13 05:15:41;;;;;;;7.60;2.00;;;;;;;22.86;67.92;99470.34;108926;1257;71474;-71
2023/07/13 05:18:30;;;;;;;9.00;2.20;;;;;;;23.19;66.54;99473.20;109113;1257;57661;-67
2023/07/13 05:21:18;;;;;;;9.60;1.70;;;;;;;23.57;64.22;99476.41;109077;1259;60410;-68
2023/07/13 05:24:06;;;;;;;8.00;1.90;;;;;;;23.86;62.90;99480.61;109090;1258;72774;-70
2023/07/13 05:27:12;;;;;;;7.80;1.50;;;;;;;24.10;61.18;99488.25;108952;1257;67664;-69
2023/07/13 05:30:00;;;;;;;8.30;2.00;;;;;;;24.35;60.42;99493.57;109003;1257;72794;-69
2023/07/13 05:32:48;;;;;;;8.00;1.80;;;;;;;24.59;59.41;99491.38;109019;1257;57693;-69
2023/07/13 05:35:38;;;;;;;8.30;1.80;;;;;;;24.86;58.18;99495.31;109007;1257;60583;-71
2023/07/13 05:38:29;;;;;;;7.80;1.60;;;;;;;25.25;56.88;99501.42;109007;1257;73786;-70
2023/07/13 05:41:18;;;;;;;8.20;2.00;;;;;;;25.66;55.45;99501.79;108921;1257;69109;-69
2023/07/13 05:44:08;;;;;;;10.00;1.80;;;;;;;26.03;53.98;99510.15;108932;1257;72823;-68
2023/07/13 05:46:57;;;;;;;9.10;2.10;;;;;;;26.24;51.62;99523.11;109048;1257;58110;-67
2023/07/13 05:49:46;;;;;;;7.60;2.00;;;;;;;26.26;51.40;99526.01;109090;1257;59990;-69
2023/07/13 05:52:34;;;;;;;7.50;1.80;;;;;;;26.29;51.95;99531.52;109122;1257;73072;-63
2023/07/13 05:55:22;;;;;;;6.90;1.60;;;;;;;26.52;50.85;99534.91;108990;1257;66357;-66
2023/07/13 05:58:11;;;;;;;7.30;1.80;;;;;;;26.99;49.18;99537.21;109084;1257;72191;-66
2023/07/13 06:01:05;;;;;;;8.40;1.70;;;;;;;27.09;48.88;99536.73;109026;1257;57742;-66
2023/07/13 06:03:54;;;;;;;7.80;1.50;;;;;;;27.61;47.39;99534.23;109040;1257;59228;-67
2023/07/13 06:06:41;;;;;;;6.40;1.60;;;;;;;28.38;46.03;99540.58;109076;1257;71957;-65
2023/07/13 06:09:29;;;;;;;7.40;1.60;;;;;;;29.22;44.15;99539.45;108935;1257;67902;-61
2023/07/13 06:12:17;;;;;;;7.20;1.40;;;;;;;29.82;42.04;99541.17;109091;1257;71739;-64
2023/07/13 06:15:06;;;;;;;6.40;1.30;;;;;;;30.28;40.37;99537.51;109066;1257;57348;-64
2023/07/13 06:17:54;;;;;;;7.00;1.40;;;;;;;30.76;39.14;99544.56;108893;1258;60442;-64
2023/07/13 06:20:42;;;;;;;7.80;1.50;;;;;;;31.26;37.71;99534.23;109019;1258;73024;-63
2023/07/13 06:23:29;;;;;;;6.60;1.40;;;;;;;31.67;36.69;99536.66;108910;1258;68182;-65
2023/07/13 06:26:21;;;;;;;7.20;1.50;;;;;;;31.82;36.05;99539.10;109086;1258;72429;-71
2023/07/13 06:29:09;;;;;;;7.00;1.50;;;;;;;32.07;35.76;99543.60;109177;1258;58286;-71
2023/07/13 06:31:57;;;;;;;7.60;1.30;;;;;;;32.56;35.14;99542.10;108996;1259;61422;-75
2023/07/13 06:34:52;;;;;;;6.80;1.20;;;;;;;32.77;34.20;99541.85;108966;1259;72334;-77
2023/07/13 06:38:24;;;;;;;7.00;1.30;;;;;;;32.94;33.00;99542.40;108762;1264;67595;-76
2023/07/13 06:41:26;;;;;;;7.80;1.20;;;;;;;32.46;33.40;99540.56;108850;1262;73189;-75
2023/07/13 06:44:19;;;;;;;6.00;1.20;;;;;;;32.05;33.78;99542.27;108899;1262;57375;-71
2023/07/13 06:47:11;;;;;;;8.70;1.60;;;;;;;31.83;33.77;99543.45;108929;1261;60351;-76
2023/07/13 06:50:05;;;;;;;6.30;1.20;;;;;;;30.95;35.17;99542.32;108715;1262;73028;-74
2023/07/13 06:53:00;;;;;;;7.30;1.50;;;;;;;30.29;36.13;99544.66;108713;1262;66677;-76
2023/07/13 06:55:51;;;;;;;5.30;1.10;;;;;;;29.62;37.73;99539.58;108782;1261;71357;-72
2023/07/13 06:58:39;;;;;;;7.20;1.60;;;;;;;29.28;38.42;99541.60;108827;1262;57425;-78
2023/07/13 07:01:29;;;;;;;6.10;1.30;;;;;;;29.17;38.23;99546.55;108737;1262;58834;-76
2023/07/13 07:04:17;;;;;;;5.10;1.10;;;;;;;29.71;37.29;99547.08;108833;1261;73789;-75
2023/07/13 07:07:15;;;;;;;6.20;1.50;;;;;;;30.03;36.88;99553.55;108706;1262;67963;-77
2023/07/13 07:10:17;;;;;;;6.70;1.30;;;;;;;29.76;36.91;99554.30;109064;1259;72930;-75
2023/07/13 07:13:08;;;;;;;6.80;1.20;;;;;;;30.57;35.63;99560.02;108945;1259;58026;-72
2023/07/13 07:16:00;;;;;;;6.90;1.20;;;;;;;29.98;36.54;99557.15;108891;1263;60383;-77
2023/07/13 07:18:56;;;;;;;5.20;1.00;;;;;;;29.20;37.50;99555.20;108988;1258;71805;-75
2023/07/13 07:21:46;;;;;;;7.80;1.30;;;;;;;28.60;38.62;99553.02;108940;1259;66548;-78
2023/07/13 07:24:38;;;;;;;6.60;1.30;;;;;;;28.38;39.59;99551.87;108913;1259;72533;-74
2023/07/13 07:27:27;;;;;;;7.60;1.30;;;;;;;28.27;39.62;99548.56;109023;1259;57653;-75
2023/07/13 07:30:23;;;;;;;6.20;1.50;;;;;;;27.75;40.79;99552.09;109103;1259;58990;-74
2023/07/13 07:33:16;;;;;;;7.60;1.60;;;;;;;27.38;42.37;99550.45;108941;1259;73147;-69
2023/07/13 07:36:04;;;;;;;6.50;1.30;;;;;;;28.08;41.61;99545.07;108918;1259;66294;-71
2023/07/13 07:38:55;;;;;;;7.20;1.10;;;;;;;29.02;38.86;99545.36;109019;1259;72305;-70
2023/07/13 07:41:43;;;;;;;6.10;1.10;;;;;;;30.29;36.53;99552.13;108995;1259;58330;-68
2023/07/13 07:44:44;;;;;;;6.70;1.20;;;;;;;30.37;35.01;99550.21;108988;1259;58789;-69
2023/07/13 07:47:35;;;;;;;6.30;1.30;;;;;;;30.92;34.65;99553.04;108910;1259;73149;-71
2023/07/13 07:50:28;;;;;;;7.10;1.40;;;;;;;31.29;33.67;99550.23;108695;1259;68197;-71
2023/07/13 07:53:16;;;;;;;6.50;1.20;;;;;;;31.80;33.65;99552.58;108909;1259;72581;-69
2023/07/13 07:56:04;;;;;;;6.20;1.30;;;;;;;32.95;32.35;99550.83;108814;1259;57327;-71
2023/07/13 07:59:15;;;;;;;6.20;1.10;;;;;;;32.54;31.55;99555.20;108938;1259;58982;-70
2023/07/13 08:02:08;;;;;;;9.70;1.30;;;;;;;31.81;32.91;99560.00;108904;1258;72243;-70
2023/07/13 08:05:16;;;;;;;5.50;1.20;;;;;;;30.83;34.27;99565.69;108984;1264;69066;-70
2023/07/13 08:08:07;;;;;;;7.60;1.30;;;;;;;30.88;34.34;99569.23;109059;1258;72910;-72
2023/07/13 08:10:55;;;;;;;7.10;1.20;;;;;;;30.06;35.53;99568.87;108993;1259;59373;-70
2023/07/13 08:13:50;;;;;;;6.30;1.40;;;;;;;29.91;36.13;99566.24;108973;1259;61246;-71
2023/07/13 08:16:42;;;;;;;6.00;1.30;;;;;;;30.90;34.19;99568.36;108980;1258;73766;-72
2023/07/13 08:19:30;;;;;;;5.10;1.00;;;;;;;30.34;34.87;99571.86;108965;1258;67996;-71
2023/07/13 08:22:18;;;;;;;6.00;1.40;;;;;;;29.43;35.81;99568.48;108981;1259;73985;-70
2023/07/13 08:25:07;;;;;;;6.80;1.70;;;;;;;29.45;36.36;99569.54;109021;1259;57341;-68
2023/07/13 08:27:55;;;;;;;6.70;1.50;;;;;;;30.55;35.17;99571.15;108977;1259;61058;-69
2023/07/13 08:30:48;;;;;;;6.50;1.60;;;;;;;31.64;32.86;99569.11;108961;1262;73035;-73
2023/07/13 08:33:36;;;;;;;7.60;1.70;;;;;;;31.51;31.67;99572.61;108963;1258;66387;-71
2023/07/13 08:36:27;;;;;;;6.10;1.30;;;;;;;30.91;32.30;99578.65;108882;1259;72900;-72
2023/07/13 08:39:15;;;;;;;6.30;1.20;;;;;;;31.67;31.64;99571.63;108980;1258;57301;-69
2023/07/13 08:42:23;;;;;;;8.00;1.50;;;;;;;32.39;30.50;99569.09;108947;1259;60122;-72
2023/07/13 08:45:17;;;;;;;5.50;1.10;;;;;;;32.58;29.32;99565.29;109040;1259;73174;-70
2023/07/13 08:48:17;;;;;;;6.70;1.30;;;;;;;33.25;29.19;99563.37;109029;1259;67809;-69
2023/07/13 08:51:28;;;;;;;6.00;1.30;;;;;;;33.99;27.97;99566.73;108941;1258;72853;-70
2023/07/13 08:54:35;;;;;;;6.40;1.10;;;;;;;34.72;26.94;99570.42;109060;1257;58709;-69
2023/07/13 08:57:34;;;;;;;6.00;1.10;;;;;;;35.11;26.36;99572.39;108903;1258;60212;-73
2023/07/13 09:00:29;;;;;;;5.50;1.20;;;;;;;35.69;25.66;99569.94;108994;1257;72867;-71
2023/07/13 09:03:24;;;;;;;7.40;1.10;;;;;;;35.55;25.19;99567.92;108803;1261;67604;-72
2023/07/13 09:06:14;;;;;;;6.50;0.90;;;;;;;35.56;25.37;99570.30;108872;1261;71395;-71
2023/07/13 09:09:16;;;;;;;5.00;0.90;;;;;;;35.24;26.03;99569.80;108880;1260;57361;-73
2023/07/13 09:12:21;;;;;;;7.40;1.30;;;;;;;35.80;25.75;99564.48;108951;1261;60058;-73
2023/07/13 09:15:25;;;;;;;5.70;1.10;;;;;;;35.24;25.92;99566.48;108859;1262;71743;-70
2023/07/13 09:18:37;;;;;;;6.10;1.10;;;;;;;35.40;26.25;99561.75;108970;1261;69332;-70
2023/07/13 09:21:37;;;;;;;5.50;0.90;;;;;;;35.73;26.01;99556.95;108930;1260;72911;-71
2023/07/13 09:24:52;;;;;;;7.30;1.10;;;;;;;36.18;25.61;99552.33;108833;1260;57269;-72
2023/07/13 09:27:45;;;;;;;5.70;1.00;;;;;;;36.46;24.40;99551.70;108662;1265;58766;-71
2023/07/13 09:30:44;;;;;;;6.00;1.00;;;;;;;36.22;24.99;99544.27;108560;1265;72297;-76
2023/07/13 09:33:32;;;;;;;5.60;1.00;;;;;;;36.03;25.42;99550.52;108692;1265;68245;-73
2023/07/13 09:36:30;;;;;;;5.80;1.10;;;;;;;35.25;26.08;99555.75;108577;1265;73464;-70
2023/07/13 09:39:31;;;;;;;5.70;1.00;;;;;;;34.35;27.57;99558.05;108593;1265;57436;-68
2023/07/13 09:42:28;;;;;;;5.70;1.10;;;;;;;32.96;28.86;99559.75;108849;1263;59706;-77
2023/07/13 09:45:28;;;;;;;5.70;1.20;;;;;;;31.68;30.54;99558.92;108706;1262;73587;-68
2023/07/13 09:48:18;;;;;;;5.60;1.00;;;;;;;30.51;32.28;99564.64;108645;1262;66717;-73
2023/07/13 09:51:16;;;;;;;5.00;1.10;;;;;;;29.60;33.96;99566.36;108780;1262;72616;-72
2023/07/13 09:54:24;;;;;;;8.40;1.40;;;;;;;28.76;35.04;99572.58;108715;1262;58434;-73
2023/07/13 09:57:26;;;;;;;6.60;1.50;;;;;;;27.93;36.78;99577.46;108763;1262;58920;-73
2023/07/13 10:00:37;;;;;;;5.50;1.30;;;;;;;26.73;40.72;99593.66;108783;1262;71923;-71
2023/07/13 10:03:37;;;;;;;5.40;1.20;;;;;;;25.68;44.11;99591.46;108602;1263;68864;-75
2023/07/13 10:06:26;;;;;;;6.40;1.50;;;;;;;24.95;47.36;99594.23;109033;1259;71094;-74
2023/07/13 10:09:17;;;;;;;7.50;1.70;;;;;;;24.48;50.45;99599.36;109065;1258;57315;-74
2023/07/13 10:12:17;;;;;;;6.60;1.80;;;;;;;24.13;53.00;99596.86;109009;1259;60235;-72
2023/07/13 10:15:23;;;;;;;8.10;1.90;;;;;;;23.81;54.27;99591.27;109062;1257;73117;-72
2023/07/13 10:18:17;;;;;;;6.10;1.80;;;;;;;23.53;55.47;99586.89;109105;1257;68245;-73
2023/07/13 10:21:18;;;;;;;6.70;1.50;;;;;;;23.42;56.07;99592.00;108918;1259;72532;-72
2023/07/13 10:24:29;;;;;;;8.70;2.00;;;;;;;23.27;57.26;99592.30;109070;1257;57728;-73
2023/07/13 10:27:33;;;;;;;9.30;2.00;;;;;;;23.08;58.38;99601.73;109154;1257;60414;-73
2023/07/13 10:30:46;;;;;;;9.50;2.00;;;;;;;22.90;58.96;99605.77;108963;1257;71888;-74
2023/07/13 10:33:49;;;;;;;6.00;1.70;;;;;;;22.81;60.40;99604.23;109070;1257;68426;-73
2023/07/13 10:36:48;;;;;;;7.40;1.90;;;;;;;22.83;60.94;99602.15;108911;1259;71361;-75
2023/07/13 10:39:47;;;;;;;7.50;1.90;;;;;;;22.95;61.02;99604.92;108998;1259;57323;-72
2023/07/13 10:42:45;;;;;;;6.40;1.80;;;;;;;23.19;59.02;99598.21;108954;1258;60359;-76
2023/07/13 10:45:43;;;;;;;6.60;1.90;;;;;;;23.53;58.74;99596.09;108999;1258;73125;-73
2023/07/13 10:49:04;;;;;;;7.30;1.90;;;;;;;23.98;56.68;99594.25;108894;1258;67282;-72
2023/07/13 10:51:53;;;;;;;9.00;1.90;;;;;;;24.47;55.82;99593.80;108964;1259;71089;-71
2023/07/13 10:54:42;;;;;;;6.20;1.80;;;;;;;25.73;51.50;99584.38;108916;1259;58010;-76
2023/07/13 10:57:42;;;;;;;6.30;1.60;;;;;;;27.86;46.40;99583.73;109047;1260;60317;-76
2023/07/13 11:00:34;;;;;;;6.40;1.60;;;;;;;29.85;41.37;99577.58;108790;1262;72087;-72
2023/07/13 11:03:27;;;;;;;6.10;1.60;;;;;;;31.00;37.27;99593.60;108896;1260;68355;-73
2023/07/13 11:06:30;;;;;;;6.00;1.30;;;;;;;31.27;35.66;99594.63;108847;1260;71462;-74
2023/07/13 11:09:47;;;;;;;7.20;1.60;;;;;;;31.18;36.00;99599.20;108695;1265;57843;-76
2023/07/13 11:12:47;;;;;;;6.50;1.40;;;;;;;31.81;35.12;99597.86;108817;1264;58855;-75
2023/07/13 11:15:48;;;;;;;5.50;1.30;;;;;;;31.65;33.71;99598.88;108775;1264;73093;-73
2023/07/13 11:18:36;;;;;;;5.70;1.20;;;;;;;31.50;32.50;99597.86;108803;1264;67964;-72
2023/07/13 11:21:32;;;;;;;5.40;1.00;;;;;;;31.56;31.83;99604.42;108787;1263;72369;-74
2023/07/13 11:24:28;;;;;;;6.10;1.20;;;;;;;31.00;33.06;99614.92;108753;1264;57994;-76
2023/07/13 11:27:45;;;;;;;8.50;1.50;;;;;;;30.31;37.21;99610.74;108678;1267;59067;-75
2023/07/13 11:30:39;;;;;;;7.30;1.60;;;;;;;29.54;40.17;99608.90;108210;1268;71890;-73
2023/07/13 11:33:40;;;;;;;6.90;1.40;;;;;;;28.82;41.62;99614.30;108570;1267;66652;-72
2023/07/13 11:36:48;;;;;;;7.20;1.60;;;;;;;28.52;42.52;99613.83;108681;1267;71075;-75
2023/07/13 11:39:59;;;;;;;6.40;1.30;;;;;;;28.06;43.47;99611.34;108664;1265;57452;-72
2023/07/13 11:43:08;;;;;;;8.70;1.80;;;;;;;27.74;44.84;99606.02;108364;1267;60879;-73
2023/07/13 11:46:31;;;;;;;7.70;2.20;;;;;;;27.54;45.00;99612.89;108508;1267;73740;-76
2023/07/13 11:49:26;;;;;;;7.40;1.20;;;;;;;27.48;45.55;99607.52;108529;1269;68990;-75
2023/07/13 11:52:24;;;;;;;9.60;1.50;;;;;;;27.23;45.70;99601.23;108304;1268;73717;-75
2023/07/13 11:55:27;;;;;;;11.40;5.10;;;;;;;26.76;46.54;99608.55;108421;1267;57432;-76
2023/07/13 11:58:30;;;;;;;8.30;2.20;;;;;;;26.27;47.50;99602.86;108496;1264;59322;-73
2023/07/13 12:01:36;;;;;;;7.60;1.40;;;;;;;26.02;48.19;99614.24;108694;1262;75764;-76
2023/07/13 12:04:34;;;;;;;9.10;1.60;;;;;;;25.96;48.75;99618.01;108898;1262;66739;-72
2023/07/13 12:07:22;;;;;;;6.90;1.40;;;;;;;25.82;49.10;99602.60;108641;1260;72926;-73
2023/07/13 12:10:24;;;;;;;6.70;1.60;;;;;;;25.74;49.38;99616.05;108907;1260;57627;-73
2023/07/13 12:13:13;;;;;;;6.90;1.60;;;;;;;25.60;49.55;99622.24;108950;1260;59329;-75
2023/07/13 12:16:02;;;;;;;8.10;1.60;;;;;;;25.26;50.41;99624.36;108860;1262;73065;-74
2023/07/13 12:18:53;;;;;;;8.40;1.80;;;;;;;24.96;51.15;99630.56;108816;1263;68582;-72
2023/07/13 12:21:53;;;;;;;7.70;1.60;;;;;;;24.79;51.75;99635.20;108752;1262;71444;-73
2023/07/13 12:24:48;;;;;;;7.60;1.60;;;;;;;24.68;51.95;99638.56;108752;1261;58019;-76
2023/07/13 12:27:38;;;;;;;6.90;1.40;;;;;;;24.63;52.57;99648.57;107985;1260;1359800;-74
2023/07/13 12:30:31;;;;;;;15.00;2.60;;;;;;;24.51;53.40;99642.92;108978;1258;73383;-76
2023/07/13 12:33:19;;;;;;;16.00;2.30;;;;;;;24.58;52.91;99646.90;109078;1257;67292;-75
2023/07/13 12:36:12;;;;;;;8.50;1.80;;;;;;;24.61;52.14;99639.82;108858;1262;72141;-73
2023/07/13 12:39:48;;;;;;;7.00;1.40;;;;;;;24.68;51.13;99634.00;108918;1262;58000;-74
2023/07/13 12:42:39;;;;;;;8.70;1.70;;;;;;;24.69;51.22;99631.36;108542;1267;61401;-76
2023/07/13 12:45:30;;;;;;;7.30;1.40;;;;;;;24.56;50.67;99628.27;108422;1269;73438;-76
2023/07/13 12:48:20;;;;;;;9.10;1.40;;;;;;;24.42;51.39;99622.45;108412;1273;67924;-77
2023/07/13 12:51:37;;;;;;;8.50;1.40;;;;;;;24.37;50.75;99621.62;108380;1267;72945;-72
2023/07/13 12:54:30;;;;;;;5.30;1.30;;;;;;;24.43;50.81;99618.48;108287;1267;59120;-75
2023/07/13 12:57:22;;;;;;;7.80;1.40;;;;;;;24.67;50.21;99623.03;108311;1267;58929;-73
2023/07/13 13:00:37;;;;;;;6.90;1.30;;;;;;;24.83;49.43;99617.70;108495;1267;73454;-74
2023/07/13 13:03:46;;;;;;;7.20;1.40;;;;;;;24.88;48.96;99612.81;108562;1268;66740;-75
2023/07/13 13:06:38;;;;;;;6.40;1.30;;;;;;;24.91;49.67;99612.52;108181;1272;73818;-73
2023/07/13 13:09:27;;;;;;;6.90;1.20;;;;;;;24.87;49.41;99612.94;107792;1271;57386;-73
2023/07/13 13:12:20;;;;;;;7.20;1.50;;;;;;;24.52;49.74;99615.32;108024;1272;59710;-73
2023/07/13 13:15:22;;;;;;;9.60;1.50;;;;;;;24.32;50.54;99606.85;108092;1270;71686;-75
2023/07/13 13:18:29;;;;;;;7.50;1.40;;;;;;;24.11;51.39;99603.32;107992;1271;66737;-74
2023/07/13 13:21:19;;;;;;;6.10;1.20;;;;;;;23.88;52.37;99598.82;108299;1271;74009;-72
2023/07/13 13:24:22;;;;;;;6.20;1.30;;;;;;;23.89;52.92;99600.23;108446;1269;57602;-76